Aeroporto :
LOGIN :

Iscrizione | Disclaimer

   EN    FR    IT 

 










Sommario :    VFR   VFR Marginale   IFR   IFR Intensivo   IFR Molto Intensivo
Visibilità : 
Base nubi : 
>= 8 km
>= 3000ft
5 / 8 km
1000 / 3000 ft
1500m / 5 km
500 / 1000 ft
800 / 1500m
200 / 500 ft
< 800m
< 200 ft
Simboli :   Temporali  Nebbia  Neve Forte  Precipitazioni Forti  Vento > 20 kt
SIGMETs :   Varie  Temporali  Ghiacco  Turbolenza  Onda orograficha  Ceneri Vulcaniche






- Altitudine del aeroporto : 2595 ft
- Codice IATA : SLM


LESA - Salamanca Matacan

ULTIMO METAR :
  • 011900Z 26011KT 220V290 CAVOK 15/07 Q1011

METARs OBSOLETI :
  • 011830Z 28009KT 250V320 CAVOK 15/06 Q1011
  • 011800Z 28008KT 240V330 CAVOK 16/05 Q1011
  • 011730Z 28011KT 240V330 CAVOK 17/05 Q1011
  • 011700Z 27013G24KT 240V310 CAVOK 18/06 Q1011
  • 011630Z 27013KT 240V320 CAVOK 18/06 Q1011

TAF TAF LESA
Valido dal 01 a 15 ore il 02 a 15 ore UTC


011400Z 0115/0215 27015KT 9999 FEW000 TX20/0116Z TN10/0211Z
TEMPO 0115/0202 26015G25KT
TEMPO 0202/0207 24025G35KT
TEMPO 0203/0210 4000 RA BKN008
PROB40
TEMPO 0205/0208 24035G45KT
TEMPO 0207/0215 30025G35KT



MetMap, La meteo Aeronautica in un colpo d'occhio ! - Copyright ORBIFLY Dicembre 2007 - Disclaimer

ORBIFLY MET'MAP TEAM :

Programmazione e sviluppo : Alexandra Zaïnal
Concezione : Baudouin d'Aumeries
Aiuto per la programmazione : Marc-Olivier Méhu
Supporto tecnico e logistico : Manuel Goepfert
Aiuto per la traduzione : Arnaldo La Scala

Contatto : metmap@orbifly.com




FONTI E CREDITI :

   NOAA